createdAt,value
2022-12-20T00:02:21.578Z,12.27
2022-12-20T00:07:23.318Z,11.82
2022-12-20T00:12:25.064Z,11.95
2022-12-20T00:17:26.829Z,11.85
2022-12-20T00:22:28.535Z,12.07
2022-12-20T00:27:30.218Z,11.05
2022-12-20T00:32:32.046Z,12.52
2022-12-20T00:37:33.908Z,11.85
2022-12-20T00:42:35.687Z,10.70
2022-12-20T00:47:37.362Z,10.77
2022-12-20T00:52:39.034Z,12.00
2022-12-20T00:57:40.694Z,10.93
2022-12-20T01:02:42.547Z,13.00
2022-12-20T01:07:44.267Z,10.85
2022-12-20T01:12:45.947Z,10.05
2022-12-20T01:17:48.266Z,12.15
2022-12-20T01:22:50.918Z,15.85
2022-12-20T01:27:53.075Z,11.60
2022-12-20T01:32:54.837Z,13.35
2022-12-20T01:37:56.525Z,11.15
2022-12-20T01:42:58.181Z,11.70
2022-12-20T01:48:00.619Z,9.77
2022-12-20T01:53:04.322Z,9.45
2022-12-20T01:58:12.147Z,10.13
2022-12-20T02:03:15.451Z,10.75
2022-12-20T02:08:19.632Z,9.93
2022-12-20T02:13:37.199Z,9.02
2022-12-20T02:18:53.032Z,10.77
2022-12-20T02:24:34.152Z,9.73
2022-12-20T02:29:38.685Z,10.57
2022-12-20T02:34:41.613Z,8.65
2022-12-20T02:39:45.602Z,7.88
2022-12-20T02:45:15.774Z,10.07
2022-12-20T02:50:26.754Z,10.25
2022-12-20T02:55:43.256Z,8.70
2022-12-20T03:00:49.476Z,7.88
2022-12-20T03:05:55.539Z,7.00
2022-12-20T03:10:57.301Z,5.70
2022-12-20T03:15:58.972Z,4.82
2022-12-20T03:21:00.717Z,5.75
2022-12-20T03:26:02.487Z,4.72
2022-12-20T03:31:04.649Z,5.82
2022-12-20T03:36:06.720Z,7.30
2022-12-20T03:41:08.420Z,5.03
2022-12-20T03:46:10.103Z,4.28
2022-12-20T03:51:12.016Z,4.50
2022-12-20T03:56:14.040Z,10.75
2022-12-20T04:01:21.423Z,9.32
2022-12-20T04:06:24.090Z,4.68
2022-12-20T04:11:25.851Z,5.68
2022-12-20T04:16:29.845Z,5.32
2022-12-20T04:21:34.574Z,5.72
2022-12-20T04:26:36.829Z,6.75
2022-12-20T04:31:38.523Z,5.72
2022-12-20T04:36:40.285Z,5.13
2022-12-20T04:41:42.024Z,6.20
2022-12-20T04:46:44.997Z,8.38
2022-12-20T04:51:46.688Z,7.20
2022-12-20T04:56:48.348Z,6.40
2022-12-20T05:01:50.083Z,6.63
2022-12-20T05:06:51.893Z,6.20
2022-12-20T05:11:54.032Z,12.30
2022-12-20T05:16:55.762Z,6.85
2022-12-20T05:22:16.083Z,6.22
2022-12-20T05:27:17.808Z,5.28
2022-12-20T05:32:19.498Z,5.40
2022-12-20T05:37:21.255Z,8.60
2022-12-20T05:42:23.404Z,7.25
2022-12-20T05:47:25.041Z,5.32
2022-12-20T05:52:26.932Z,8.02
2022-12-20T05:57:28.643Z,10.18
2022-12-20T06:02:30.899Z,7.57
2022-12-20T06:07:32.891Z,5.22
2022-12-20T06:12:35.280Z,7.32
2022-12-20T06:17:36.996Z,5.95
2022-12-20T06:22:38.719Z,6.00
2022-12-20T06:27:40.709Z,9.27
2022-12-20T06:32:42.439Z,6.40
2022-12-20T06:37:44.274Z,6.15
2022-12-20T06:42:46.210Z,5.15
2022-12-20T06:47:47.858Z,6.35
2022-12-20T06:52:49.518Z,5.72
2022-12-20T06:57:51.666Z,5.55
2022-12-20T07:02:53.410Z,6.53
2022-12-20T07:07:55.180Z,9.05
2022-12-20T07:12:56.855Z,13.90
2022-12-20T07:17:58.500Z,8.52
2022-12-20T07:23:00.191Z,6.00
2022-12-20T07:28:03.062Z,6.25
2022-12-20T07:33:04.811Z,5.50
2022-12-20T07:38:07.501Z,5.80
2022-12-20T07:43:10.243Z,13.05
2022-12-20T07:48:16.400Z,10.10
2022-12-20T07:53:23.476Z,10.65
2022-12-20T07:58:25.562Z,14.35
2022-12-20T08:03:35.490Z,12.10
2022-12-20T08:08:42.524Z,12.13
2022-12-20T08:13:46.820Z,10.48
2022-12-20T08:18:49.128Z,8.95
2022-12-20T08:23:51.903Z,11.10
2022-12-20T08:28:55.128Z,12.60
2022-12-20T08:33:57.251Z,13.57
2022-12-20T08:39:01.807Z,15.32
2022-12-20T08:44:07.006Z,16.30
2022-12-20T08:49:08.731Z,16.27
2022-12-20T08:54:10.438Z,15.27
2022-12-20T08:59:12.580Z,18.42
2022-12-20T09:04:15.359Z,20.08
2022-12-20T09:09:17.104Z,17.33
2022-12-20T09:14:19.675Z,13.63
2022-12-20T09:19:21.482Z,16.05
2022-12-20T09:24:23.962Z,23.90
2022-12-20T09:29:29.732Z,20.88
2022-12-20T09:34:37.037Z,19.58
2022-12-20T09:39:39.193Z,21.90
2022-12-20T09:44:42.254Z,40.38
2022-12-20T09:49:48.428Z,28.02
2022-12-20T09:55:08.700Z,17.63
2022-12-20T10:00:15.483Z,17.85
2022-12-20T10:05:26.578Z,17.92
2022-12-20T10:11:03.631Z,16.65
2022-12-20T10:16:29.392Z,17.75
2022-12-20T10:21:52.915Z,17.17
2022-12-20T10:26:54.956Z,17.65
2022-12-20T10:32:01.015Z,18.95
2022-12-20T10:37:18.894Z,19.55
2022-12-20T10:42:42.394Z,19.33
2022-12-20T10:47:46.433Z,21.75
2022-12-20T10:53:12.251Z,22.17
2022-12-20T10:58:17.743Z,19.95
2022-12-20T11:03:23.289Z,23.92
2022-12-20T11:08:50.124Z,30.15
2022-12-20T11:13:51.698Z,32.85
2022-12-20T11:19:14.059Z,30.75
2022-12-20T11:24:33.017Z,29.48
2022-12-20T11:29:49.380Z,28.88
2022-12-20T11:35:18.322Z,28.45
2022-12-20T11:40:46.146Z,29.10
2022-12-20T11:46:09.293Z,27.13
2022-12-20T11:51:22.811Z,27.52
2022-12-20T11:56:43.611Z,38.55
2022-12-20T12:02:20.811Z,31.30
2022-12-20T12:07:28.776Z,28.20
2022-12-20T12:13:12.404Z,20.17
2022-12-20T12:18:23.786Z,21.40
2022-12-20T12:23:28.566Z,34.80
2022-12-20T12:28:30.371Z,39.15
2022-12-20T12:33:39.075Z,38.95
2022-12-20T12:39:03.117Z,28.73
2022-12-20T12:44:27.093Z,22.80
2022-12-20T12:49:31.961Z,17.23
2022-12-20T12:54:41.390Z,27.00
2022-12-20T12:59:48.286Z,33.83
2022-12-20T13:05:25.704Z,27.25
2022-12-20T13:10:31.419Z,38.75
2022-12-20T13:15:33.182Z,34.78
2022-12-20T13:20:36.623Z,35.85
2022-12-20T13:25:48.371Z,23.38
2022-12-20T13:31:02.542Z,26.40
2022-12-20T13:36:12.089Z,49.72
2022-12-20T13:41:31.130Z,39.88
2022-12-20T13:46:54.796Z,31.60
2022-12-20T13:52:11.540Z,29.77
2022-12-20T13:57:17.585Z,28.00
2022-12-20T14:02:26.505Z,31.48
2022-12-20T14:07:30.848Z,27.05
2022-12-20T14:12:36.796Z,24.40
2022-12-20T14:17:44.534Z,20.63
2022-12-20T14:23:04.515Z,13.73
2022-12-20T14:28:26.993Z,18.08
2022-12-20T14:33:36.402Z,21.88
2022-12-20T14:38:40.247Z,24.70
2022-12-20T14:43:42.338Z,25.40
2022-12-20T14:48:45.017Z,28.80
2022-12-20T14:53:48.700Z,27.40
2022-12-20T14:59:05.059Z,25.67
2022-12-20T15:04:25.355Z,22.90
2022-12-20T15:09:27.269Z,16.92
2022-12-20T15:14:40.787Z,16.88
2022-12-20T15:19:43.218Z,15.63
2022-12-20T15:24:44.984Z,14.65
2022-12-20T15:29:46.737Z,18.33
2022-12-20T15:34:48.777Z,15.98
2022-12-20T15:39:50.525Z,15.70
2022-12-20T15:44:52.267Z,23.52
2022-12-20T15:49:53.937Z,9.15
2022-12-20T15:54:55.834Z,8.82
2022-12-20T16:00:00.528Z,11.60
2022-12-20T16:05:04.107Z,11.65
2022-12-20T16:10:08.786Z,10.23
2022-12-20T16:15:21.747Z,8.13
2022-12-20T16:20:23.503Z,8.00
2022-12-20T16:25:36.410Z,10.02
2022-12-20T16:30:38.390Z,9.88
2022-12-20T16:35:40.054Z,7.22
2022-12-20T16:40:41.752Z,9.27
2022-12-20T16:45:43.600Z,14.70
2022-12-20T16:50:45.399Z,29.27
2022-12-20T16:55:47.048Z,25.33
2022-12-20T17:00:48.791Z,19.55
2022-12-20T17:05:51.587Z,17.92
2022-12-20T17:10:53.290Z,19.00
2022-12-20T17:15:54.975Z,18.52
2022-12-20T17:20:56.775Z,24.60
2022-12-20T17:25:58.434Z,21.80
2022-12-20T17:31:07.610Z,33.30
2022-12-20T17:36:10.048Z,25.45
2022-12-20T17:41:23.495Z,13.85
2022-12-20T17:46:26.296Z,20.40
2022-12-20T17:51:30.226Z,12.98
2022-12-20T17:56:36.913Z,17.58
2022-12-20T18:01:39.159Z,25.35
2022-12-20T18:06:42.493Z,21.58
2022-12-20T18:11:44.803Z,21.58
2022-12-20T18:16:46.541Z,16.73
2022-12-20T18:21:48.320Z,16.67
2022-12-20T18:26:50.105Z,19.65
2022-12-20T18:31:51.861Z,18.42
2022-12-20T18:36:53.655Z,14.00
2022-12-20T18:41:55.304Z,10.93
2022-12-20T18:46:56.949Z,12.60
2022-12-20T18:52:00.055Z,14.32
2022-12-20T18:57:01.883Z,18.92
2022-12-20T19:02:04.111Z,19.13
2022-12-20T19:07:06.120Z,13.77
2022-12-20T19:12:07.833Z,19.73
2022-12-20T19:17:09.547Z,16.27
2022-12-20T19:22:11.396Z,10.90
2022-12-20T19:27:16.396Z,10.38
2022-12-20T19:32:18.102Z,12.90
2022-12-20T19:37:19.866Z,9.63
2022-12-20T19:42:24.590Z,26.27
2022-12-20T19:47:29.209Z,24.77
2022-12-20T19:52:30.957Z,14.77
2022-12-20T19:57:33.664Z,23.08
2022-12-20T20:02:35.560Z,23.85
2022-12-20T20:07:37.473Z,21.88
2022-12-20T20:12:39.659Z,19.00
2022-12-20T20:17:41.338Z,19.67
2022-12-20T20:22:43.455Z,19.88
2022-12-20T20:27:46.053Z,19.33
2022-12-20T20:32:47.820Z,16.73
2022-12-20T20:37:49.590Z,18.05
2022-12-20T20:42:51.685Z,14.10
2022-12-20T20:47:53.554Z,11.77
2022-12-20T20:52:55.272Z,11.05
2022-12-20T20:57:56.949Z,14.35
2022-12-20T21:02:59.770Z,10.48
2022-12-20T21:08:01.729Z,8.63
2022-12-20T21:13:04.611Z,33.97
2022-12-20T21:18:06.410Z,24.65
2022-12-20T21:23:08.236Z,18.27
2022-12-20T21:28:13.952Z,11.95
2022-12-20T21:33:18.001Z,18.55
2022-12-20T21:38:19.698Z,27.52
2022-12-20T21:43:21.379Z,25.98
2022-12-20T21:48:23.772Z,16.17
2022-12-20T21:53:25.566Z,6.50
2022-12-20T21:58:29.296Z,22.75
2022-12-20T22:03:31.461Z,19.15
2022-12-20T22:08:33.961Z,18.30
2022-12-20T22:13:41.162Z,14.60
2022-12-20T22:18:48.236Z,13.88
2022-12-20T22:23:50.353Z,15.65
2022-12-20T22:28:57.429Z,12.27
2022-12-20T22:33:59.658Z,13.93
2022-12-20T22:39:01.387Z,12.68
2022-12-20T22:44:04.010Z,10.13
2022-12-20T22:49:05.762Z,10.13
2022-12-20T22:54:07.445Z,6.00
2022-12-20T22:59:09.174Z,13.40
2022-12-20T23:04:10.811Z,13.82
2022-12-20T23:09:12.541Z,25.85
2022-12-20T23:14:38.157Z,22.02
2022-12-20T23:19:58.514Z,14.73
2022-12-20T23:25:00.456Z,16.35
2022-12-20T23:30:04.377Z,11.82
2022-12-20T23:35:12.274Z,9.73
2022-12-20T23:40:16.368Z,8.20
2022-12-20T23:45:18.054Z,9.63
2022-12-20T23:50:19.983Z,10.57
2022-12-20T23:55:21.739Z,9.77
